Time;durP1;ratioP1;P1;durP2;ratioP2;P2;SDS_P1;SDS_P2;PMS_P1;PMS_P2;Temp;Humidity;BMP_temperature;BMP_pressure;BME280_temperature;BME280_humidity;BME280_pressure;Samples;Min_cycle;Max_cycle;Signal;HPM_P1;HPM_P2
2023/07/16 00:01:25;;;;;;;9.32;5.82;;;;;;;25.40;62.72;101274.72;4955123;28;20038;-91
2023/07/16 00:03:50;;;;;;;7.20;5.20;;;;;;;25.27;62.98;101260.19;4955054;28;20050;-90
2023/07/16 00:06:16;;;;;;;7.85;5.28;;;;;;;25.32;62.82;101271.19;4954976;28;20027;-91
2023/07/16 00:08:41;;;;;;;7.55;5.28;;;;;;;25.21;62.87;101260.84;4954999;28;20030;-91
2023/07/16 00:11:07;;;;;;;7.90;5.50;;;;;;;25.13;63.14;101259.78;4955269;28;20026;-90
2023/07/16 00:13:32;;;;;;;10.50;5.38;;;;;;;25.11;63.08;101258.28;4955314;28;20035;-91
2023/07/16 00:15:58;;;;;;;7.45;5.00;;;;;;;25.11;63.22;101259.13;4954994;28;20412;-89
2023/07/16 00:18:23;;;;;;;7.32;4.75;;;;;;;25.04;63.59;101257.22;4955283;28;20039;-90
2023/07/16 00:20:49;;;;;;;8.13;5.43;;;;;;;25.14;63.50;101265.91;4955220;28;20034;-90
2023/07/16 00:23:14;;;;;;;8.93;4.90;;;;;;;25.12;63.02;101257.28;4955065;28;20026;-90
2023/07/16 00:25:40;;;;;;;10.68;5.40;;;;;;;25.15;63.04;101264.91;4955356;28;20497;-90
2023/07/16 00:28:05;;;;;;;9.70;5.72;;;;;;;25.05;63.82;101262.38;4939214;28;20031;-89
2023/07/16 00:30:30;;;;;;;7.22;5.05;;;;;;;25.16;62.88;101256.00;4955053;28;20030;-90
2023/07/16 00:32:56;;;;;;;9.73;5.88;;;;;;;25.17;63.13;101262.94;4939114;28;20038;-90
2023/07/16 00:35:21;;;;;;;9.27;4.97;;;;;;;25.14;62.65;101255.31;4954956;28;20031;-92
2023/07/16 00:37:47;;;;;;;8.82;5.28;;;;;;;25.13;63.09;101261.59;4955063;28;20038;-90
2023/07/16 00:40:12;;;;;;;10.02;5.20;;;;;;;25.07;63.28;101256.91;4954960;28;20031;-89
2023/07/16 00:42:38;;;;;;;7.82;5.38;;;;;;;25.09;63.49;101262.91;4955318;28;20023;-90
2023/07/16 00:45:04;;;;;;;8.50;5.57;;;;;;;24.83;64.15;101237.19;4954461;28;20034;-91
2023/07/16 00:47:30;;;;;;;7.75;5.50;;;;;;;24.96;63.93;101257.13;4938641;28;20420;-92
2023/07/16 00:49:55;;;;;;;9.18;5.32;;;;;;;24.89;64.38;101251.63;4954776;28;20027;-92
2023/07/16 00:52:21;;;;;;;9.05;5.43;;;;;;;24.91;64.61;101252.31;4954895;28;20460;-90
2023/07/16 00:54:46;;;;;;;7.90;5.35;;;;;;;24.91;64.32;101243.53;4954725;28;20504;-90
2023/07/16 00:57:11;;;;;;;9.68;5.68;;;;;;;24.96;64.17;101252.66;4954892;28;20027;-89
2023/07/16 00:59:37;;;;;;;6.88;5.00;;;;;;;25.05;64.13;101248.31;4954649;28;20042;-91
2023/07/16 01:02:02;;;;;;;9.38;5.35;;;;;;;25.06;64.15;101245.50;4954702;28;20492;-89
2023/07/16 01:04:28;;;;;;;8.70;5.20;;;;;;;24.87;64.78;101249.13;4955173;28;20031;-90
2023/07/16 01:06:55;;;;;;;8.43;4.70;;;;;;;24.66;65.87;101251.25;4955009;28;20091;-90
2023/07/16 01:09:21;;;;;;;7.75;5.38;;;;;;;24.66;65.74;101253.06;4954983;28;20027;-89
2023/07/16 01:11:47;;;;;;;8.30;5.35;;;;;;;24.49;66.29;101260.88;4954742;28;20485;-89
2023/07/16 01:14:13;;;;;;;8.05;5.32;;;;;;;24.39;66.92;101257.44;4954807;28;20037;-90
2023/07/16 01:16:38;;;;;;;9.45;4.70;;;;;;;24.36;67.13;101265.66;4954672;28;20027;-89
2023/07/16 01:19:05;;;;;;;8.02;5.25;;;;;;;24.20;67.50;101258.38;4956574;28;20054;-89
2023/07/16 01:21:50;;;;;;;6.88;5.03;;;;;;;24.22;67.77;101269.63;4958429;28;20034;-91
2023/07/16 01:24:53;;;;;;;8.57;5.10;;;;;;;24.16;68.11;101264.91;4989596;28;20046;-89
2023/07/16 01:27:34;;;;;;;11.88;5.05;;;;;;;23.90;68.48;101226.97;4990321;28;20035;-90
2023/07/16 01:30:04;;;;;;;7.50;5.18;;;;;;;24.02;68.74;101244.28;4942788;28;20026;-92
2023/07/16 01:32:30;;;;;;;10.38;5.35;;;;;;;24.06;68.79;101255.38;4958118;28;20039;-90
2023/07/16 01:34:56;;;;;;;7.10;5.05;;;;;;;24.06;68.79;101248.28;4957985;28;20051;-89
2023/07/16 01:37:21;;;;;;;11.15;5.47;;;;;;;24.05;68.88;101254.53;4957876;28;20031;-90
2023/07/16 01:39:47;;;;;;;6.57;5.03;;;;;;;24.02;68.99;101247.75;4942126;28;20408;-92
2023/07/16 01:42:12;;;;;;;8.40;5.68;;;;;;;23.98;69.76;101262.22;4958102;28;20055;-91
2023/07/16 01:44:38;;;;;;;6.50;5.22;;;;;;;24.12;69.10;101262.72;4957675;28;20424;-90
2023/07/16 01:47:10;;;;;;;8.27;5.28;;;;;;;24.08;69.13;101256.88;4941945;28;20489;-91
2023/07/16 01:49:35;;;;;;;8.45;5.30;;;;;;;24.05;69.16;101257.19;4974029;28;20050;-90
2023/07/16 01:52:01;;;;;;;13.75;5.50;;;;;;;24.14;69.29;101266.06;4957875;28;20532;-90
2023/07/16 01:54:27;;;;;;;8.40;5.60;;;;;;;24.01;69.53;101263.75;4957739;28;20038;-90
2023/07/16 01:56:52;;;;;;;8.35;5.28;;;;;;;24.04;69.66;101268.75;4941907;28;20117;-90
2023/07/16 01:59:17;;;;;;;6.50;4.97;;;;;;;23.89;69.66;101259.63;4957473;28;20027;-89
2023/07/16 02:01:43;;;;;;;14.15;6.20;;;;;;;23.95;69.58;101266.97;4957501;28;20117;-89
2023/07/16 02:04:08;;;;;;;7.60;5.38;;;;;;;23.90;70.08;101270.06;4957510;28;20027;-91
2023/07/16 02:06:34;;;;;;;7.97;5.22;;;;;;;23.91;70.28;101260.34;4957507;28;20038;-90
2023/07/16 02:08:59;;;;;;;7.88;5.18;;;;;;;23.92;70.10;101267.28;4941457;28;20031;-92
2023/07/16 02:11:25;;;;;;;7.88;5.13;;;;;;;23.80;70.48;101258.72;4957460;28;20547;-89
2023/07/16 02:13:50;;;;;;;9.90;5.70;;;;;;;23.74;70.51;101254.00;4957084;28;20034;-90
2023/07/16 02:16:15;;;;;;;7.65;5.32;;;;;;;23.72;70.70;101261.25;4957665;28;20034;-89
2023/07/16 02:18:41;;;;;;;8.27;5.35;;;;;;;23.66;70.79;101249.44;4956879;28;20038;-90
2023/07/16 02:21:06;;;;;;;10.07;5.82;;;;;;;23.73;70.59;101258.44;4957153;28;20027;-91
2023/07/16 02:23:32;;;;;;;10.23;6.03;;;;;;;23.61;71.18;101264.06;4957015;28;20524;-89
2023/07/16 02:25:57;;;;;;;8.38;6.13;;;;;;;23.53;71.43;101270.03;4957112;28;20038;-89
2023/07/16 02:28:23;;;;;;;8.95;6.07;;;;;;;23.50;71.40;101267.69;4956693;28;20038;-90
2023/07/16 02:30:49;;;;;;;8.50;5.57;;;;;;;23.56;71.54;101269.72;4956257;28;20035;-90
2023/07/16 02:33:15;;;;;;;8.57;5.97;;;;;;;23.58;71.47;101275.69;4956833;28;20477;-89
2023/07/16 02:35:40;;;;;;;10.88;6.28;;;;;;;23.50;71.53;101274.75;4940748;28;20097;-90
2023/07/16 02:38:06;;;;;;;7.78;5.45;;;;;;;23.46;71.60;101274.22;4956856;28;20417;-90
2023/07/16 02:40:31;;;;;;;9.70;6.53;;;;;;;23.37;71.82;101267.13;4956773;28;20031;-90
2023/07/16 02:42:57;;;;;;;9.43;6.25;;;;;;;23.39;72.04;101267.81;4956468;28;20022;-89
2023/07/16 02:45:22;;;;;;;9.55;5.60;;;;;;;23.50;71.62;101272.09;4956627;28;20053;-91
2023/07/16 02:47:48;;;;;;;8.07;5.85;;;;;;;23.46;71.44;101266.28;4956564;28;20030;-90
2023/07/16 02:50:13;;;;;;;8.82;6.25;;;;;;;23.51;71.55;101264.06;4956581;28;20090;-89
2023/07/16 02:52:38;;;;;;;7.43;5.25;;;;;;;23.39;71.92;101266.00;4956618;28;20026;-90
2023/07/16 02:55:04;;;;;;;7.15;5.07;;;;;;;23.48;71.77;101269.59;4956382;28;20496;-90
2023/07/16 02:57:30;;;;;;;7.40;5.10;;;;;;;23.47;71.42;101273.22;4956460;28;20049;-90
2023/07/16 02:59:55;;;;;;;8.27;5.32;;;;;;;23.52;71.06;101267.53;4940603;28;20481;-91
2023/07/16 03:02:21;;;;;;;8.90;6.13;;;;;;;23.52;71.43;101286.84;4956272;28;20031;-92
2023/07/16 03:04:46;;;;;;;9.05;6.00;;;;;;;23.49;71.46;101287.13;4956418;28;20050;-90
2023/07/16 03:07:12;;;;;;;7.05;5.32;;;;;;;23.47;71.51;101278.50;4956439;28;20481;-91
2023/07/16 03:09:37;;;;;;;8.23;5.68;;;;;;;23.47;71.61;101281.16;4955952;28;20053;-89
2023/07/16 03:12:03;;;;;;;7.07;5.32;;;;;;;23.40;71.84;101280.03;4956083;28;20477;-89
2023/07/16 03:14:28;;;;;;;7.50;5.35;;;;;;;23.33;71.89;101271.88;4956295;28;20030;-89
2023/07/16 03:16:54;;;;;;;9.18;6.15;;;;;;;23.38;72.10;101284.66;4956261;28;20039;-89
2023/07/16 03:19:19;;;;;;;8.02;4.97;;;;;;;23.42;72.03;101286.88;4956049;28;20034;-89
2023/07/16 03:21:45;;;;;;;12.18;6.05;;;;;;;23.31;72.65;101288.84;4940137;28;20031;-91
2023/07/16 03:24:12;;;;;;;8.13;5.28;;;;;;;23.31;72.69;101291.50;4940286;28;20037;-90
2023/07/16 03:26:37;;;;;;;7.53;5.57;;;;;;;23.29;72.63;101280.22;4971918;28;20026;-89
2023/07/16 03:29:03;;;;;;;9.70;5.30;;;;;;;23.39;72.31;101296.88;4955957;28;20493;-90
2023/07/16 03:31:28;;;;;;;7.78;4.95;;;;;;;23.17;72.50;101269.81;4955941;28;20034;-90
2023/07/16 03:33:54;;;;;;;7.57;5.32;;;;;;;23.30;72.61;101290.63;4955668;28;20051;-89
2023/07/16 03:36:19;;;;;;;10.25;5.78;;;;;;;23.27;72.39;101290.09;4939793;28;20086;-92
2023/07/16 03:38:45;;;;;;;8.75;5.22;;;;;;;23.33;72.51;101292.19;4955845;28;20511;-91
2023/07/16 03:41:10;;;;;;;11.85;5.72;;;;;;;23.38;72.17;101287.28;4955603;28;20023;-89
2023/07/16 03:43:36;;;;;;;8.93;5.70;;;;;;;23.35;72.01;101284.94;4955762;28;20520;-90
2023/07/16 03:46:01;;;;;;;9.43;5.78;;;;;;;23.33;72.21;101289.53;4955597;28;20019;-89
2023/07/16 03:48:27;;;;;;;8.07;5.60;;;;;;;23.35;72.41;101296.34;4955695;28;20543;-90
2023/07/16 03:50:52;;;;;;;7.75;5.45;;;;;;;23.45;71.99;101291.03;4955537;28;20023;-91
2023/07/16 03:53:18;;;;;;;9.40;6.07;;;;;;;23.42;72.31;101300.06;4955657;28;20509;-90
2023/07/16 03:55:43;;;;;;;7.45;5.43;;;;;;;23.51;71.68;101306.31;4955352;28;20089;-91
2023/07/16 03:58:08;;;;;;;7.35;5.15;;;;;;;23.51;71.73;101305.47;4939491;28;20033;-91
2023/07/16 04:00:34;;;;;;;8.02;5.97;;;;;;;23.46;71.79;101296.16;4955500;28;20093;-91
2023/07/16 04:02:59;;;;;;;11.38;6.15;;;;;;;23.47;71.83;101305.75;4955459;28;20027;-90
2023/07/16 04:05:25;;;;;;;9.75;6.63;;;;;;;23.51;71.85;101310.75;4939379;28;20034;-91
2023/07/16 04:07:50;;;;;;;8.40;6.30;;;;;;;23.50;71.78;101315.22;4955608;28;20081;-89
2023/07/16 04:10:16;;;;;;;8.88;6.10;;;;;;;23.52;71.42;101301.88;4939478;28;20515;-89
2023/07/16 04:12:41;;;;;;;10.25;6.40;;;;;;;23.65;71.31;101319.09;4955264;28;20031;-90
2023/07/16 04:15:09;;;;;;;11.05;5.95;;;;;;;23.67;71.36;101324.22;4955175;28;20034;-90
2023/07/16 04:17:34;;;;;;;9.13;5.90;;;;;;;23.63;71.73;101318.41;4955528;28;20053;-92
2023/07/16 04:19:59;;;;;;;10.15;6.55;;;;;;;23.68;71.49;101323.25;4954945;28;20473;-90
2023/07/16 04:22:25;;;;;;;8.98;5.88;;;;;;;23.70;71.43;101321.31;4954799;28;20038;-91
2023/07/16 04:24:50;;;;;;;13.65;7.13;;;;;;;23.78;71.04;101328.50;4954989;28;20031;-90
2023/07/16 04:27:16;;;;;;;11.63;6.55;;;;;;;23.75;70.66;101319.91;4955178;28;20509;-89
2023/07/16 04:29:41;;;;;;;14.23;7.40;;;;;;;23.77;71.13;101326.84;4955092;28;20093;-91
2023/07/16 04:32:07;;;;;;;19.90;8.63;;;;;;;23.75;70.68;101325.19;4955224;28;20026;-91
2023/07/16 04:34:32;;;;;;;11.73;7.47;;;;;;;23.84;70.29;101320.84;4954809;28;20501;-89
2023/07/16 04:36:58;;;;;;;11.70;6.93;;;;;;;23.89;70.40;101318.63;4954796;28;20026;-91
2023/07/16 04:39:23;;;;;;;10.75;6.93;;;;;;;23.91;70.08;101323.75;4954974;28;20031;-91
2023/07/16 04:41:49;;;;;;;12.00;7.07;;;;;;;23.99;70.40;101329.97;4954884;28;20031;-91
2023/07/16 04:44:14;;;;;;;15.02;8.05;;;;;;;24.01;70.68;101335.94;4955025;28;20035;-91
2023/07/16 04:46:39;;;;;;;10.88;7.90;;;;;;;24.07;70.13;101329.22;4938971;28;20038;-90
2023/07/16 04:49:06;;;;;;;14.45;7.68;;;;;;;24.12;69.73;101331.47;4954808;28;20031;-89
2023/07/16 04:51:31;;;;;;;9.48;7.32;;;;;;;24.27;69.21;101330.81;4954943;28;20038;-91
2023/07/16 04:53:57;;;;;;;16.48;8.23;;;;;;;24.33;68.50;101339.19;4956859;28;20035;-90
2023/07/16 04:56:22;;;;;;;9.68;6.95;;;;;;;24.43;68.46;101343.44;4958698;28;20090;-89
2023/07/16 04:58:47;;;;;;;9.60;7.28;;;;;;;24.50;68.47;101341.03;4958610;28;20051;-90
2023/07/16 05:01:13;;;;;;;10.02;6.68;;;;;;;24.45;68.52;101338.81;4958774;28;20026;-89
2023/07/16 05:03:38;;;;;;;10.65;6.85;;;;;;;24.51;68.35;101332.13;4958681;28;20026;-91
2023/07/16 05:06:04;;;;;;;11.27;6.95;;;;;;;24.54;68.83;101334.47;4942480;28;20508;-89
2023/07/16 05:08:30;;;;;;;11.98;7.40;;;;;;;24.67;68.06;101342.03;4958760;28;20068;-89
2023/07/16 05:10:55;;;;;;;10.75;7.07;;;;;;;24.72;67.40;101340.63;4958099;28;20074;-89
2023/07/16 05:13:21;;;;;;;10.32;7.07;;;;;;;24.76;68.10;101341.97;4958430;28;20037;-89
2023/07/16 05:15:46;;;;;;;9.10;6.75;;;;;;;24.84;67.45;101334.13;4958177;28;20031;-90
2023/07/16 05:18:12;;;;;;;9.50;6.68;;;;;;;24.95;67.41;101342.81;4958336;28;20448;-90
2023/07/16 05:20:37;;;;;;;12.93;7.35;;;;;;;25.03;67.22;101345.56;4957865;28;20054;-91
2023/07/16 05:23:02;;;;;;;11.13;7.63;;;;;;;25.04;67.27;101339.28;4958413;28;20030;-90
2023/07/16 05:25:28;;;;;;;9.73;7.45;;;;;;;25.18;66.58;101338.78;4958211;28;20027;-91
2023/07/16 05:27:53;;;;;;;10.85;7.68;;;;;;;25.19;66.00;101326.38;4958306;28;20038;-90
2023/07/16 05:30:19;;;;;;;10.70;7.53;;;;;;;25.37;65.42;101351.84;4957991;28;20034;-91
2023/07/16 05:32:44;;;;;;;9.77;7.75;;;;;;;25.26;63.74;101328.22;4957862;28;20413;-91
2023/07/16 05:35:10;;;;;;;11.77;7.53;;;;;;;25.47;65.04;101359.69;4957698;28;20054;-90
2023/07/16 05:37:35;;;;;;;10.88;7.70;;;;;;;25.59;64.48;101353.16;4957843;28;20034;-89
2023/07/16 05:40:01;;;;;;;15.57;7.78;;;;;;;25.70;64.04;101360.03;4941877;28;20113;-90
2023/07/16 05:42:26;;;;;;;9.30;7.07;;;;;;;25.76;63.59;101356.75;4957778;28;20596;-90
2023/07/16 05:44:52;;;;;;;10.55;7.03;;;;;;;25.69;62.95;101339.81;4957807;28;20031;-89
2023/07/16 05:47:17;;;;;;;10.25;7.85;;;;;;;25.78;62.59;101351.31;4957593;28;20492;-93
2023/07/16 05:49:43;;;;;;;10.82;7.22;;;;;;;25.82;63.32;101361.44;4941364;28;20089;-88
2023/07/16 05:52:09;;;;;;;13.15;7.82;;;;;;;25.97;63.62;101351.94;4957603;28;20038;-91
2023/07/16 05:54:34;;;;;;;12.70;7.88;;;;;;;26.06;63.71;101347.50;4957429;28;20488;-91
2023/07/16 05:57:00;;;;;;;19.60;8.02;;;;;;;26.19;63.51;101357.66;4957571;28;20035;-90
2023/07/16 05:59:25;;;;;;;12.75;7.47;;;;;;;26.14;61.58;101355.47;4957821;28;20390;-92
2023/07/16 06:01:51;;;;;;;12.70;7.28;;;;;;;26.09;62.29;101359.59;4957423;28;20034;-91
2023/07/16 06:04:16;;;;;;;11.68;8.27;;;;;;;26.13;62.68;101363.59;4956437;28;20031;-92
2023/07/16 06:06:42;;;;;;;12.65;7.82;;;;;;;26.17;61.87;101359.66;4957087;28;20485;-91
2023/07/16 06:09:08;;;;;;;9.57;6.97;;;;;;;26.30;60.30;101370.63;4957392;28;20412;-92
2023/07/16 06:11:33;;;;;;;10.32;7.28;;;;;;;26.36;60.44;101370.00;4957603;28;20043;-90
2023/07/16 06:13:59;;;;;;;12.35;7.13;;;;;;;26.39;60.30;101358.28;4957399;28;20093;-91
2023/07/16 06:16:24;;;;;;;10.68;6.65;;;;;;;26.46;59.96;101368.09;4957480;28;20027;-90
2023/07/16 06:18:49;;;;;;;11.70;7.25;;;;;;;26.58;58.89;101369.44;4957028;28;20042;-90
2023/07/16 06:21:15;;;;;;;10.82;7.68;;;;;;;26.61;58.86;101367.47;4973339;28;20511;-91
2023/07/16 06:23:41;;;;;;;13.85;7.30;;;;;;;26.71;58.47;101363.66;4957095;28;20031;-91
2023/07/16 06:26:07;;;;;;;10.23;7.43;;;;;;;26.75;58.53;101370.34;4957111;28;20037;-92
2023/07/16 06:28:32;;;;;;;13.48;7.10;;;;;;;26.71;58.42;101360.19;4957062;28;20027;-91
2023/07/16 06:30:58;;;;;;;9.48;6.80;;;;;;;26.86;58.39;101361.22;4957396;28;20023;-91
2023/07/16 06:33:25;;;;;;;10.93;7.10;;;;;;;26.82;58.20;101366.00;4956581;28;20051;-92
2023/07/16 06:35:50;;;;;;;11.55;7.63;;;;;;;26.78;58.52;101356.72;4957137;28;20026;-92
2023/07/16 06:38:16;;;;;;;10.48;7.18;;;;;;;26.90;58.21;101356.41;4957100;28;20085;-91
2023/07/16 06:40:49;;;;;;;13.05;7.65;;;;;;;27.07;57.56;101358.13;4956742;28;20041;-89
2023/07/16 06:43:15;;;;;;;11.50;7.40;;;;;;;27.18;57.93;101367.59;4956833;28;20089;-89
2023/07/16 06:45:40;;;;;;;11.40;7.28;;;;;;;27.28;57.69;101361.13;4956799;28;20031;-89
2023/07/16 06:48:06;;;;;;;11.75;8.50;;;;;;;27.32;57.60;101372.22;4956538;28;20023;-90
2023/07/16 06:50:31;;;;;;;10.35;7.38;;;;;;;27.30;57.52;101367.09;4940723;28;20038;-93
2023/07/16 06:52:57;;;;;;;14.13;7.82;;;;;;;27.42;57.61;101362.25;4956637;28;20045;-90
2023/07/16 06:55:22;;;;;;;10.30;7.63;;;;;;;27.52;57.53;101365.56;4956507;28;20033;-91
2023/07/16 06:57:48;;;;;;;12.27;7.60;;;;;;;27.71;57.35;101367.91;4956719;28;20035;-92
2023/07/16 07:00:13;;;;;;;10.80;7.60;;;;;;;27.78;56.58;101357.44;4956369;28;20031;-90
2023/07/16 07:02:39;;;;;;;11.20;7.90;;;;;;;27.72;56.51;101353.63;4956217;28;20033;-90
2023/07/16 07:05:04;;;;;;;13.50;7.80;;;;;;;27.95;56.55;101363.56;4956405;28;20035;-90
2023/07/16 07:07:30;;;;;;;15.15;8.68;;;;;;;28.00;56.18;101350.56;4956406;28;20515;-92
2023/07/16 07:09:55;;;;;;;12.95;7.70;;;;;;;28.11;55.97;101352.00;4956227;28;20023;-90
2023/07/16 07:12:21;;;;;;;14.77;8.70;;;;;;;28.14;55.87;101363.16;4956266;28;20035;-92
2023/07/16 07:14:47;;;;;;;14.80;7.85;;;;;;;28.23;56.03;101356.81;4956222;28;20031;-89
2023/07/16 07:17:13;;;;;;;12.23;8.07;;;;;;;28.33;55.02;101350.47;4956535;28;20109;-91
2023/07/16 07:19:38;;;;;;;13.60;8.90;;;;;;;28.49;54.28;101353.03;4956089;28;20488;-90
2023/07/16 07:22:04;;;;;;;14.55;8.63;;;;;;;28.56;54.46;101354.84;4956153;28;20034;-93
2023/07/16 07:24:29;;;;;;;11.10;8.27;;;;;;;28.72;54.71;101351.25;4956248;28;20027;-93
2023/07/16 07:26:55;;;;;;;13.68;8.23;;;;;;;28.76;53.87;101341.91;4956233;28;20507;-91
2023/07/16 07:29:20;;;;;;;14.05;8.32;;;;;;;28.80;53.70;101345.84;4956059;28;20058;-92
2023/07/16 07:31:46;;;;;;;13.05;8.57;;;;;;;28.76;53.34;101338.41;4955944;28;20081;-91
2023/07/16 07:34:11;;;;;;;13.13;8.57;;;;;;;28.74;53.62;101332.44;4955795;28;20051;-91
2023/07/16 07:36:37;;;;;;;11.43;8.60;;;;;;;28.87;53.56;101346.00;4955949;28;20050;-92
2023/07/16 07:39:02;;;;;;;10.55;8.23;;;;;;;28.93;53.24;101353.31;4955889;28;20034;-91
2023/07/16 07:41:27;;;;;;;13.10;8.95;;;;;;;29.02;52.96;101341.59;4955715;28;20023;-91
2023/07/16 07:43:53;;;;;;;11.38;7.85;;;;;;;29.03;52.79;101337.91;4939761;28;20035;-92
2023/07/16 07:46:18;;;;;;;11.50;8.68;;;;;;;29.09;52.62;101347.00;4955595;28;20035;-91
2023/07/16 07:48:44;;;;;;;13.05;8.80;;;;;;;29.01;52.84;101339.94;4955785;28;20514;-91
2023/07/16 07:51:09;;;;;;;11.77;8.55;;;;;;;29.27;53.00;101342.22;4955717;28;20030;-89
2023/07/16 07:53:35;;;;;;;13.10;8.73;;;;;;;29.42;52.39;101343.06;4955706;28;20027;-92
2023/07/16 07:56:00;;;;;;;11.30;8.80;;;;;;;29.52;52.69;101337.53;4955358;28;20081;-95
2023/07/16 07:58:26;;;;;;;12.63;8.65;;;;;;;29.61;51.23;101335.59;4939737;28;20042;-90
2023/07/16 08:00:51;;;;;;;13.65;9.32;;;;;;;29.63;51.30;101338.91;4955155;28;20023;-91
2023/07/16 08:03:16;;;;;;;14.65;9.90;;;;;;;29.72;51.58;101339.66;4955312;28;20405;-91
2023/07/16 08:05:42;;;;;;;11.32;8.60;;;;;;;29.74;51.52;101325.13;4939338;28;20039;-90
2023/07/16 08:08:07;;;;;;;15.73;9.30;;;;;;;30.02;51.00;101343.16;4955251;28;20034;-91
2023/07/16 08:10:33;;;;;;;12.68;9.40;;;;;;;30.19;50.31;101349.97;4955497;28;20030;-90
2023/07/16 08:12:59;;;;;;;13.27;8.85;;;;;;;30.12;50.19;101322.38;4955329;28;20515;-91
2023/07/16 08:15:24;;;;;;;11.43;8.30;;;;;;;30.31;50.30;101345.81;4954986;28;20035;-91
2023/07/16 08:17:50;;;;;;;12.75;9.10;;;;;;;30.45;49.52;101344.94;4955509;28;20565;-89
2023/07/16 08:20:15;;;;;;;15.07;10.35;;;;;;;30.47;49.32;101337.56;4955121;28;20027;-90
2023/07/16 08:22:41;;;;;;;13.32;8.65;;;;;;;30.60;49.49;101346.75;4955305;28;20544;-90
2023/07/16 08:25:07;;;;;;;12.48;8.30;;;;;;;30.80;48.80;101331.78;4955308;28;20523;-89
2023/07/16 08:27:32;;;;;;;14.18;9.88;;;;;;;30.80;48.75;101345.97;4954725;28;20497;-91
2023/07/16 08:29:58;;;;;;;17.75;9.80;;;;;;;31.03;48.46;101343.09;4955105;28;20042;-89
2023/07/16 08:32:23;;;;;;;11.10;8.45;;;;;;;31.27;46.64;101333.06;4955119;28;20064;-90
2023/07/16 08:34:49;;;;;;;14.77;9.05;;;;;;;31.37;46.90;101338.91;4955004;28;20121;-90
2023/07/16 08:37:14;;;;;;;11.95;8.38;;;;;;;31.59;47.17;101335.16;4955254;28;20031;-92
2023/07/16 08:39:40;;;;;;;11.50;8.90;;;;;;;31.80;46.18;101338.78;4939239;28;20033;-93
2023/07/16 08:42:06;;;;;;;10.95;8.27;;;;;;;31.89;45.33;101326.91;4955044;28;20034;-91
2023/07/16 08:44:31;;;;;;;11.18;7.88;;;;;;;32.06;45.63;101338.94;4954672;28;20564;-91
2023/07/16 08:46:57;;;;;;;11.45;8.38;;;;;;;32.10;44.70;101334.00;4955093;28;20062;-91
2023/07/16 08:49:23;;;;;;;10.07;8.27;;;;;;;32.17;44.61;101340.22;4939348;28;20037;-91
2023/07/16 08:51:49;;;;;;;14.98;8.60;;;;;;;32.28;44.74;101334.28;4955389;28;20058;-90
2023/07/16 08:54:19;;;;;;;12.38;8.80;;;;;;;32.35;44.91;101340.53;4955106;28;20506;-92
2023/07/16 08:56:45;;;;;;;13.57;8.75;;;;;;;32.47;44.39;101336.22;4956216;28;20035;-93
2023/07/16 08:59:10;;;;;;;17.38;9.20;;;;;;;32.43;44.40;101323.44;4939120;28;20035;-93
2023/07/16 09:01:36;;;;;;;12.00;8.48;;;;;;;32.55;43.17;101327.19;4939156;28;20031;-91
2023/07/16 09:04:02;;;;;;;11.95;8.55;;;;;;;32.66;44.15;101333.81;4955072;28;20022;-92
2023/07/16 09:06:27;;;;;;;13.70;8.98;;;;;;;32.69;43.31;101333.38;4938955;28;20081;-91
2023/07/16 09:08:53;;;;;;;11.50;8.10;;;;;;;32.69;44.01;101328.84;4955009;28;20035;-94
2023/07/16 09:11:21;;;;;;;12.25;8.68;;;;;;;32.85;43.58;101326.88;4939916;28;20042;-92
2023/07/16 09:13:46;;;;;;;12.18;8.13;;;;;;;32.89;43.19;101333.44;4955253;28;20035;-91
2023/07/16 09:16:12;;;;;;;12.45;8.65;;;;;;;33.17;43.45;101336.75;4954661;28;20053;-89
2023/07/16 09:18:39;;;;;;;14.18;8.73;;;;;;;33.28;43.48;101332.63;4954808;28;20503;-90
2023/07/16 09:21:06;;;;;;;14.60;8.93;;;;;;;33.39;43.43;101334.72;4939025;28;20030;-91
2023/07/16 09:23:32;;;;;;;14.20;9.38;;;;;;;33.47;42.56;101322.94;4954804;28;20034;-91
2023/07/16 09:25:57;;;;;;;12.57;9.60;;;;;;;33.60;42.42;101326.41;4954948;28;20088;-91
2023/07/16 09:28:23;;;;;;;12.35;8.63;;;;;;;33.67;42.03;101321.03;4954473;28;20035;-91
2023/07/16 09:30:50;;;;;;;11.95;8.52;;;;;;;33.81;42.39;101322.63;4954904;28;20034;-91
2023/07/16 09:33:21;;;;;;;13.13;8.82;;;;;;;33.83;41.07;101315.22;4954583;28;20049;-93
2023/07/16 09:35:50;;;;;;;12.90;9.20;;;;;;;34.06;40.55;101330.03;4954870;28;20027;-92
2023/07/16 09:38:17;;;;;;;13.82;9.27;;;;;;;34.08;41.95;101330.63;4955228;28;20038;-92
2023/07/16 09:40:42;;;;;;;11.55;8.93;;;;;;;34.19;41.09;101327.28;4957584;28;20023;-90
2023/07/16 09:43:08;;;;;;;10.27;8.18;;;;;;;34.34;41.42;101327.84;4957698;28;20046;-90
2023/07/16 09:45:33;;;;;;;17.00;8.43;;;;;;;34.64;39.15;101316.53;4941818;28;20035;-91
2023/07/16 09:47:59;;;;;;;13.80;8.65;;;;;;;34.69;39.40;101322.88;4942212;28;20544;-91
2023/07/16 09:50:25;;;;;;;12.00;8.40;;;;;;;34.60;39.11;101318.81;4957863;28;20073;-91
2023/07/16 09:52:51;;;;;;;13.30;8.55;;;;;;;34.70;39.89;101316.47;4957746;28;20095;-93
2023/07/16 09:55:16;;;;;;;13.70;8.32;;;;;;;34.76;39.36;101323.66;4957950;28;20382;-91
2023/07/16 09:57:42;;;;;;;15.75;9.07;;;;;;;34.59;39.13;101317.16;4957618;28;20035;-91
2023/07/16 10:00:12;;;;;;;11.10;8.25;;;;;;;34.64;39.53;101297.72;4957700;28;20060;-91
2023/07/16 10:02:37;;;;;;;13.27;8.93;;;;;;;34.97;39.29;101306.38;4958134;28;21257;-91
2023/07/16 10:05:16;;;;;;;11.27;8.27;;;;;;;35.13;38.24;101310.38;4957430;28;20058;-92
2023/07/16 10:07:42;;;;;;;10.85;8.40;;;;;;;35.08;38.58;101313.72;4957672;28;20312;-92
2023/07/16 10:10:08;;;;;;;11.15;8.23;;;;;;;35.12;38.85;101307.91;4957448;28;20030;-90
2023/07/16 10:12:34;;;;;;;11.32;8.27;;;;;;;35.35;37.96;101300.03;4957603;28;20026;-91
2023/07/16 10:15:02;;;;;;;12.90;8.95;;;;;;;35.59;38.14;101299.16;4957624;28;20030;-91
2023/07/16 10:17:32;;;;;;;10.52;8.18;;;;;;;35.70;38.17;101296.81;4958309;28;20035;-92
2023/07/16 10:20:10;;;;;;;12.55;9.40;;;;;;;35.47;37.69;101289.38;4957876;28;20031;-93
2023/07/16 10:22:46;;;;;;;12.63;8.75;;;;;;;35.54;37.46;101295.53;4958858;28;20081;-92
2023/07/16 10:25:17;;;;;;;9.13;8.02;;;;;;;35.63;37.57;101299.56;4957373;28;20041;-91
2023/07/16 10:27:43;;;;;;;;;;;;;;;35.74;37.44;101295.28;4990190;28;20536;-92
2023/07/16 10:30:08;;;;;;;10.32;7.53;;;;;;;35.79;36.18;101281.97;4957308;28;19914;-92
2023/07/16 10:32:34;;;;;;;9.73;7.25;;;;;;;35.99;33.71;101285.28;4957096;28;20083;-91
2023/07/16 10:35:00;;;;;;;10.13;7.25;;;;;;;36.15;34.66;101283.81;4940523;28;20537;-91
2023/07/16 10:37:26;;;;;;;15.15;7.88;;;;;;;35.99;34.97;101271.81;4957081;28;20122;-92
2023/07/16 10:39:56;;;;;;;12.75;7.43;;;;;;;36.17;34.53;101282.53;4940890;28;20114;-91
2023/07/16 10:42:23;;;;;;;11.60;8.23;;;;;;;36.35;34.87;101270.91;4957042;28;20050;-93
2023/07/16 10:44:52;;;;;;;9.68;7.40;;;;;;;36.41;33.65;101271.88;4957105;28;20030;-90
2023/07/16 10:47:23;;;;;;;9.52;7.13;;;;;;;36.36;33.68;101271.72;4957086;28;20058;-92
2023/07/16 10:49:49;;;;;;;12.00;7.63;;;;;;;36.34;33.31;101261.16;4957288;28;20512;-93
2023/07/16 10:52:15;;;;;;;13.20;7.40;;;;;;;36.30;32.39;101267.25;4940496;28;20041;-91
2023/07/16 10:54:41;;;;;;;14.13;7.63;;;;;;;36.31;33.04;101260.81;4956459;28;20035;-91
2023/07/16 10:57:06;;;;;;;10.73;7.78;;;;;;;36.34;33.34;101258.47;4940955;28;20118;-91
2023/07/16 10:59:32;;;;;;;9.80;7.10;;;;;;;36.51;32.76;101264.06;4957013;28;20034;-91
2023/07/16 11:01:58;;;;;;;18.00;7.55;;;;;;;36.83;32.24;101261.91;4956833;28;20452;-93
2023/07/16 11:04:23;;;;;;;10.10;6.28;;;;;;;36.88;29.76;101255.81;4956501;28;20121;-92
2023/07/16 11:06:52;;;;;;;11.40;6.70;;;;;;;37.01;30.06;101253.69;4956701;28;20037;-92
2023/07/16 11:09:17;;;;;;;14.30;7.15;;;;;;;37.19;29.76;101252.75;4940229;28;20129;-91
2023/07/16 11:11:43;;;;;;;12.18;6.90;;;;;;;37.49;29.73;101257.19;4956503;28;20078;-92
2023/07/16 11:14:08;;;;;;;10.60;6.65;;;;;;;37.55;29.38;101253.53;4956597;28;20034;-90